createdAt,value
2017-11-12T00:00:51.487Z,98167.59
2017-11-12T00:03:26.076Z,98167.28
2017-11-12T00:06:00.576Z,98176.86
2017-11-12T00:08:34.935Z,98167.17
2017-11-12T00:11:09.492Z,98177.94
2017-11-12T00:13:43.996Z,98177.71
2017-11-12T00:16:18.514Z,98183.74
2017-11-12T00:18:53.097Z,98180.98
2017-11-12T00:21:27.517Z,98153.58
2017-11-12T00:24:02.092Z,98170.34
2017-11-12T00:26:36.607Z,98156.05
2017-11-12T00:29:11.240Z,98161.02
2017-11-12T00:31:45.473Z,98162.16
2017-11-12T00:34:19.963Z,98174.12
2017-11-12T00:36:54.788Z,98172.72
2017-11-12T00:39:29.413Z,98163.77
2017-11-12T00:42:03.635Z,98167.33
2017-11-12T00:44:38.064Z,98169.95
2017-11-12T00:47:12.811Z,98158.33
2017-11-12T00:49:47.760Z,98158.81
2017-11-12T00:52:22.158Z,98154.69
2017-11-12T00:54:56.736Z,98162.21
2017-11-12T00:57:31.893Z,98153.76
2017-11-12T01:00:14.683Z,98141.83
2017-11-12T01:02:49.362Z,98140.87
2017-11-12T01:05:23.797Z,98134.55
2017-11-12T01:07:58.295Z,98144.10
2017-11-12T01:10:32.797Z,98133.80
2017-11-12T01:13:07.355Z,98124.38
2017-11-12T01:15:41.767Z,98135.91
2017-11-12T01:18:16.345Z,98135.05
2017-11-12T01:20:51.029Z,98145.05
2017-11-12T01:23:25.556Z,98139.19
2017-11-12T01:26:00.048Z,98122.83
2017-11-12T01:28:34.554Z,98138.73
2017-11-12T01:31:09.039Z,98131.95
2017-11-12T01:33:43.580Z,98146.93
2017-11-12T01:36:17.977Z,98128.67
2017-11-12T01:38:52.542Z,98153.50
2017-11-12T01:41:26.978Z,98151.95
2017-11-12T01:44:01.479Z,98155.93
2017-11-12T01:46:35.911Z,98151.41
2017-11-12T01:49:10.489Z,98151.36
2017-11-12T01:51:44.615Z,98158.07
2017-11-12T01:54:19.056Z,98155.39
2017-11-12T01:56:53.540Z,98154.84
2017-11-12T01:59:28.068Z,98160.77
2017-11-12T02:02:02.192Z,98167.25
2017-11-12T02:04:36.688Z,98169.48
2017-11-12T02:07:11.184Z,98170.69
2017-11-12T02:09:45.568Z,98182.29
2017-11-12T02:12:20.006Z,98174.44
2017-11-12T02:14:54.432Z,98168.39
2017-11-12T02:17:28.815Z,98182.75
2017-11-12T02:22:43.645Z,98183.62
2017-11-12T02:25:17.744Z,98192.61
2017-11-12T02:27:52.555Z,98211.44
2017-11-12T02:30:27.064Z,98214.97
2017-11-12T02:33:01.294Z,98219.73
2017-11-12T02:35:35.785Z,98220.36
2017-11-12T02:38:09.932Z,98225.27
2017-11-12T02:40:44.020Z,98225.31
2017-11-12T02:43:18.772Z,98236.84
2017-11-12T02:45:53.220Z,98250.52
2017-11-12T02:48:27.373Z,98240.07
2017-11-12T02:51:01.418Z,98254.63
2017-11-12T02:53:35.672Z,98244.27
2017-11-12T02:56:09.532Z,98245.02
2017-11-12T02:58:44.048Z,98252.48
2017-11-12T03:01:18.480Z,98255.43
2017-11-12T03:03:53.215Z,98261.85
2017-11-12T03:06:27.652Z,98270.16
2017-11-12T03:09:02.235Z,98272.79
2017-11-12T03:11:36.956Z,98280.34
2017-11-12T03:14:11.456Z,98281.03
2017-11-12T03:16:45.931Z,98274.69
2017-11-12T03:19:20.516Z,98297.69
2017-11-12T03:21:55.039Z,98296.56
2017-11-12T03:24:29.591Z,98296.62
2017-11-12T03:27:04.181Z,98301.72
2017-11-12T03:29:38.882Z,98309.18
2017-11-12T03:32:13.270Z,98306.48
2017-11-12T03:34:47.699Z,98312.38
2017-11-12T03:37:22.112Z,98307.83
2017-11-12T03:39:56.731Z,98323.69
2017-11-12T03:42:31.175Z,98324.11
2017-11-12T03:45:14.821Z,98323.02
2017-11-12T03:47:49.216Z,98330.92
2017-11-12T03:50:23.706Z,98322.39
2017-11-12T03:52:58.224Z,98329.38
2017-11-12T03:55:32.759Z,98333.23
2017-11-12T03:58:07.380Z,98333.13
2017-11-12T04:00:41.436Z,98331.48
2017-11-12T04:03:15.899Z,98336.33
2017-11-12T04:05:50.409Z,98347.84
2017-11-12T04:08:24.936Z,98352.03
2017-11-12T04:10:59.459Z,98348.59
2017-11-12T04:13:34.003Z,98346.91
2017-11-12T04:16:08.488Z,98349.59
2017-11-12T04:18:43.079Z,98353.70
2017-11-12T04:21:17.504Z,98353.73
2017-11-12T04:23:52.747Z,98351.12
2017-11-12T04:26:27.545Z,98356.34
2017-11-12T04:29:02.150Z,98358.89
2017-11-12T04:31:36.924Z,98367.08
2017-11-12T04:34:11.456Z,98375.14
2017-11-12T04:36:45.867Z,98382.19
2017-11-12T04:39:20.384Z,98387.14
2017-11-12T04:41:54.837Z,98382.70
2017-11-12T04:44:29.367Z,98374.86
2017-11-12T04:47:03.768Z,98376.26
2017-11-12T04:49:38.403Z,98374.25
2017-11-12T04:52:12.866Z,98390.76
2017-11-12T04:54:47.431Z,98382.38
2017-11-12T04:57:21.910Z,98364.35
2017-11-12T04:59:56.698Z,98381.23
2017-11-12T05:02:31.100Z,98394.99
2017-11-12T05:05:14.548Z,98386.06
2017-11-12T05:07:48.873Z,98380.94
2017-11-12T05:10:23.322Z,98380.44
2017-11-12T05:12:58.264Z,98375.89
2017-11-12T05:15:32.681Z,98358.22
2017-11-12T05:18:07.088Z,98381.84
2017-11-12T05:20:41.579Z,98393.39
2017-11-12T05:23:16.194Z,98404.84
2017-11-12T05:25:50.623Z,98412.41
2017-11-12T05:28:25.232Z,98411.84
2017-11-12T05:30:59.620Z,98412.40
2017-11-12T05:33:34.245Z,98406.02
2017-11-12T05:36:08.684Z,98414.26
2017-11-12T05:38:43.210Z,98432.08
2017-11-12T05:41:17.784Z,98420.13
2017-11-12T05:43:52.402Z,98449.27
2017-11-12T05:46:26.851Z,98439.55
2017-11-12T05:49:01.292Z,98445.00
2017-11-12T05:51:35.696Z,98441.40
2017-11-12T05:54:10.211Z,98438.39
2017-11-12T05:56:44.586Z,98444.23
2017-11-12T05:59:19.281Z,98452.41
2017-11-12T06:01:53.683Z,98444.01
2017-11-12T06:04:28.218Z,98449.30
2017-11-12T06:07:02.533Z,98455.48
2017-11-12T06:09:37.084Z,98463.44
2017-11-12T06:12:11.649Z,98470.83
2017-11-12T06:14:45.829Z,98467.80
2017-11-12T06:17:20.331Z,98463.96
2017-11-12T06:19:54.687Z,98479.59
2017-11-12T06:22:28.887Z,98464.91
2017-11-12T06:27:46.825Z,98476.00
2017-11-12T06:30:21.716Z,98478.26
2017-11-12T06:32:56.056Z,98472.48
2017-11-12T06:35:30.297Z,98470.32
2017-11-12T06:38:04.796Z,98481.94
2017-11-12T06:40:39.244Z,98479.34
2017-11-12T06:43:13.804Z,98483.33
2017-11-12T06:45:48.183Z,98463.94
2017-11-12T06:48:22.659Z,98462.19
2017-11-12T06:50:57.312Z,98463.70
2017-11-12T06:53:31.858Z,98458.67
2017-11-12T06:56:06.375Z,98474.16
2017-11-12T06:58:41.080Z,98481.04
2017-11-12T07:01:15.519Z,98481.36
2017-11-12T07:03:50.095Z,98482.54
2017-11-12T07:06:24.540Z,98467.52
2017-11-12T07:08:58.988Z,98466.91
2017-11-12T07:11:33.419Z,98423.09
2017-11-12T07:14:07.983Z,98473.98
2017-11-12T07:16:42.447Z,98482.56
2017-11-12T07:19:16.978Z,98472.80
2017-11-12T07:21:51.375Z,98462.94
2017-11-12T07:24:26.261Z,98463.38
2017-11-12T07:27:00.748Z,98460.18
2017-11-12T07:29:35.399Z,98464.38
2017-11-12T07:32:09.875Z,98471.03
2017-11-12T07:34:44.467Z,98470.80
2017-11-12T07:37:18.851Z,98469.59
2017-11-12T07:39:53.295Z,98461.62
2017-11-12T07:42:27.799Z,98470.56
2017-11-12T07:47:42.323Z,98474.02
2017-11-12T07:50:16.755Z,98463.98
2017-11-12T07:52:50.906Z,98463.06
2017-11-12T07:55:25.750Z,98464.08
2017-11-12T07:58:00.279Z,98457.20
2017-11-12T08:00:34.671Z,98393.77
2017-11-12T08:03:09.076Z,98442.91
2017-11-12T08:05:43.304Z,98444.08
2017-11-12T08:08:17.804Z,98435.88
2017-11-12T08:10:52.436Z,98421.19
2017-11-12T08:13:27.103Z,98412.93
2017-11-12T08:16:01.594Z,98407.59
2017-11-12T08:18:35.656Z,98408.69
2017-11-12T08:21:10.212Z,98416.09
2017-11-12T08:23:44.855Z,98387.22
2017-11-12T08:26:19.256Z,98400.18
2017-11-12T08:28:53.859Z,98387.73
2017-11-12T08:31:27.948Z,98387.62
2017-11-12T08:34:02.401Z,98382.46
2017-11-12T08:36:36.708Z,98374.23
2017-11-12T08:39:11.053Z,98381.08
2017-11-12T08:41:45.262Z,98370.87
2017-11-12T08:44:19.605Z,98373.11
2017-11-12T08:46:54.085Z,98365.82
2017-11-12T08:49:28.633Z,98341.30
2017-11-12T08:52:02.523Z,98365.14
2017-11-12T08:54:36.651Z,98373.12
2017-11-12T08:57:11.841Z,98384.58
2017-11-12T08:59:46.400Z,98384.48
2017-11-12T09:02:20.790Z,98385.61
2017-11-12T09:04:55.416Z,98391.78
2017-11-12T09:07:29.809Z,98391.98
2017-11-12T09:10:13.352Z,98395.43
2017-11-12T09:12:47.981Z,98400.02
2017-11-12T09:15:22.465Z,98394.39
2017-11-12T09:17:57.076Z,98395.41
2017-11-12T09:20:31.519Z,98407.42
2017-11-12T09:23:06.034Z,98403.14
2017-11-12T09:25:40.438Z,98402.55
2017-11-12T09:28:15.428Z,98396.30
2017-11-12T09:30:49.987Z,98381.58
2017-11-12T09:33:24.399Z,98385.56
2017-11-12T09:35:58.538Z,98392.16
2017-11-12T09:38:33.059Z,98391.88
2017-11-12T09:41:07.427Z,98390.38
2017-11-12T09:43:41.841Z,98375.79
2017-11-12T09:46:17.002Z,98378.94
2017-11-12T09:48:51.478Z,98371.48
2017-11-12T09:51:25.861Z,98367.06
2017-11-12T09:54:00.556Z,98363.81
2017-11-12T09:56:34.995Z,98359.77
2017-11-12T09:59:09.552Z,98352.23
2017-11-12T10:01:43.972Z,98352.30
2017-11-12T10:04:18.569Z,98339.53
2017-11-12T10:06:52.988Z,98343.60
2017-11-12T10:09:27.518Z,98329.05
2017-11-12T10:12:01.938Z,98324.56
2017-11-12T10:14:36.519Z,98314.64
2017-11-12T10:17:11.100Z,98302.01
2017-11-12T10:19:47.264Z,98296.37
2017-11-12T10:22:21.715Z,98298.01
2017-11-12T10:24:56.239Z,98283.31
2017-11-12T10:27:30.774Z,98266.50
2017-11-12T10:30:14.583Z,98260.01
2017-11-12T10:32:49.020Z,98251.13
2017-11-12T10:35:23.443Z,98244.72
2017-11-12T10:37:57.917Z,98237.83
2017-11-12T10:40:32.300Z,98226.81
2017-11-12T10:43:06.757Z,98224.48
2017-11-12T10:45:41.244Z,98223.64
2017-11-12T10:48:15.880Z,98222.09
2017-11-12T10:50:50.288Z,98220.31
2017-11-12T10:53:24.727Z,98210.81
2017-11-12T10:55:59.123Z,98206.58
2017-11-12T10:58:33.721Z,98200.16
2017-11-12T11:01:08.091Z,98197.17
2017-11-12T11:03:42.746Z,98188.26
2017-11-12T11:06:17.180Z,98175.20
2017-11-12T11:08:51.774Z,98156.47
2017-11-12T11:11:26.606Z,98153.27
2017-11-12T11:14:01.172Z,98150.45
2017-11-12T11:16:35.559Z,98148.13
2017-11-12T11:19:10.732Z,98143.05
2017-11-12T11:21:45.368Z,98139.16
2017-11-12T11:24:19.953Z,98133.89
2017-11-12T11:26:54.745Z,98115.78
2017-11-12T11:29:29.217Z,98105.95
2017-11-12T11:32:03.664Z,98115.22
2017-11-12T11:34:38.254Z,98113.91
2017-11-12T11:37:12.931Z,98110.08
2017-11-12T11:39:47.609Z,98076.81
2017-11-12T11:42:22.053Z,98091.22
2017-11-12T11:44:56.848Z,98098.84
2017-11-12T11:47:31.350Z,98086.92
2017-11-12T11:50:13.311Z,98086.34
2017-11-12T11:52:47.896Z,98076.05
2017-11-12T11:55:22.343Z,98080.08
2017-11-12T11:57:56.953Z,98078.91
2017-11-12T12:00:31.110Z,98072.99
2017-11-12T12:03:05.696Z,98067.33
2017-11-12T12:05:40.307Z,98063.25
2017-11-12T12:08:14.820Z,98061.13
2017-11-12T12:10:49.280Z,98057.08
2017-11-12T12:13:23.958Z,98058.50
2017-11-12T12:15:58.402Z,98059.14
2017-11-12T12:18:32.827Z,98037.70
2017-11-12T12:21:07.212Z,98031.75
2017-11-12T12:23:41.895Z,98026.41
2017-11-12T12:26:16.344Z,98017.27
2017-11-12T12:28:50.774Z,98013.23
2017-11-12T12:31:25.177Z,98003.11
2017-11-12T12:33:59.804Z,97989.17
2017-11-12T12:36:34.224Z,97988.02
2017-11-12T12:39:08.545Z,97987.48
2017-11-12T12:41:43.399Z,97975.92
2017-11-12T12:44:17.847Z,97966.36
2017-11-12T12:46:52.393Z,97962.57
2017-11-12T12:49:27.076Z,97957.23
2017-11-12T12:52:01.701Z,97957.05
2017-11-12T12:54:36.276Z,97945.95
2017-11-12T12:57:10.684Z,97937.72
2017-11-12T12:59:45.216Z,97933.13
2017-11-12T13:02:19.628Z,97923.51
2017-11-12T13:04:54.064Z,97914.88
2017-11-12T13:07:28.607Z,97917.31
2017-11-12T13:12:43.849Z,97898.65
2017-11-12T13:15:18.189Z,97891.03
2017-11-12T13:17:52.856Z,97891.52
2017-11-12T13:20:27.265Z,97886.72
2017-11-12T13:23:03.367Z,97875.53
2017-11-12T13:25:37.921Z,97872.69
2017-11-12T13:28:12.408Z,97861.91
2017-11-12T13:30:46.785Z,97860.93
2017-11-12T13:33:21.355Z,97865.18
2017-11-12T13:35:55.623Z,97848.73
2017-11-12T13:38:30.148Z,97853.80
2017-11-12T13:41:04.804Z,97849.25
2017-11-12T13:43:39.467Z,97840.16
2017-11-12T13:46:13.948Z,97833.43
2017-11-12T13:48:48.357Z,97832.19
2017-11-12T13:51:22.751Z,97832.81
2017-11-12T13:53:57.154Z,97828.59
2017-11-12T13:56:31.711Z,97754.31
2017-11-12T13:59:06.116Z,97828.88
2017-11-12T14:01:40.683Z,97808.53
2017-11-12T14:04:15.088Z,97804.17
2017-11-12T14:06:49.676Z,97788.91
2017-11-12T14:09:24.197Z,97782.50
2017-11-12T14:11:58.671Z,97779.57
2017-11-12T14:14:33.055Z,97772.53
2017-11-12T14:17:07.577Z,97726.06
2017-11-12T14:19:42.159Z,97762.99
2017-11-12T14:22:17.103Z,97768.50
2017-11-12T14:24:51.632Z,97755.97
2017-11-12T14:27:26.260Z,97759.25
2017-11-12T14:30:00.810Z,97757.86
2017-11-12T14:32:35.247Z,97757.00
2017-11-12T14:35:15.690Z,97747.44
2017-11-12T14:37:50.105Z,97751.16
2017-11-12T14:40:24.495Z,97742.41
2017-11-12T14:42:58.971Z,97741.41
2017-11-12T14:45:33.559Z,97737.26
2017-11-12T14:48:08.015Z,97734.16
2017-11-12T14:50:42.313Z,97732.94
2017-11-12T14:53:16.787Z,97732.94
2017-11-12T14:55:51.272Z,97724.55
2017-11-12T14:58:26.271Z,97714.97
2017-11-12T15:01:00.774Z,97701.36
2017-11-12T15:03:35.159Z,97693.59
2017-11-12T15:06:09.674Z,97685.77
2017-11-12T15:08:44.243Z,97683.77
2017-11-12T15:11:18.631Z,97683.91
2017-11-12T15:13:53.986Z,97673.55
2017-11-12T15:16:28.551Z,97667.55
2017-11-12T15:19:03.221Z,97656.91
2017-11-12T15:21:37.716Z,97651.96
2017-11-12T15:24:12.277Z,97643.72
2017-11-12T15:26:46.957Z,97638.37
2017-11-12T15:29:21.545Z,97637.39
2017-11-12T15:31:55.964Z,97630.43
2017-11-12T15:34:30.499Z,97623.53
2017-11-12T15:37:04.887Z,97617.14
2017-11-12T15:39:39.464Z,97611.30
2017-11-12T15:42:14.294Z,97606.77
2017-11-12T15:44:48.752Z,97593.31
2017-11-12T15:47:23.091Z,97590.88
2017-11-12T15:49:57.466Z,97589.23
2017-11-12T15:52:31.915Z,97591.32
2017-11-12T15:55:14.743Z,97580.15
2017-11-12T15:57:49.280Z,97573.36
2017-11-12T16:00:23.819Z,97573.56
2017-11-12T16:02:58.032Z,97557.90
2017-11-12T16:05:32.549Z,97572.03
2017-11-12T16:08:07.054Z,97550.48
2017-11-12T16:10:41.535Z,97540.19
2017-11-12T16:13:15.980Z,97537.84
2017-11-12T16:15:50.375Z,97529.89
2017-11-12T16:18:25.010Z,97516.67
2017-11-12T16:20:59.474Z,97502.13
2017-11-12T16:23:34.232Z,97502.48
2017-11-12T16:26:08.659Z,97490.48
2017-11-12T16:28:43.177Z,97472.70
2017-11-12T16:31:17.571Z,97458.13
2017-11-12T16:33:52.168Z,97426.70
2017-11-12T16:36:26.396Z,97455.34
2017-11-12T16:39:00.670Z,97460.04
2017-11-12T16:41:35.201Z,97473.20
2017-11-12T16:44:09.575Z,97479.95
2017-11-12T16:46:43.843Z,97446.48
2017-11-12T16:49:18.186Z,97478.36
2017-11-12T16:51:52.451Z,97478.13
2017-11-12T16:54:27.001Z,97435.58
2017-11-12T16:57:01.298Z,97460.03
2017-11-12T16:59:36.170Z,97450.02
2017-11-12T17:02:10.683Z,97445.61
2017-11-12T17:04:45.867Z,97436.25
2017-11-12T17:07:20.490Z,97427.45
2017-11-12T17:09:55.138Z,97424.36
2017-11-12T17:12:29.728Z,97413.16
2017-11-12T17:17:46.507Z,97370.82
2017-11-12T17:20:21.101Z,97370.34
2017-11-12T17:22:55.619Z,97409.22
2017-11-12T17:25:29.910Z,97446.01
2017-11-12T17:28:05.376Z,97434.97
2017-11-12T17:30:39.759Z,97417.61
2017-11-12T17:33:14.388Z,97397.29
2017-11-12T17:35:48.931Z,97387.70
2017-11-12T17:38:23.563Z,97371.31
2017-11-12T17:40:57.991Z,97351.06
2017-11-12T17:43:32.568Z,97349.15
2017-11-12T17:46:07.056Z,97348.87
2017-11-12T17:48:41.651Z,97344.50
2017-11-12T17:51:16.189Z,97340.59
2017-11-12T17:53:50.797Z,97344.39
2017-11-12T17:56:25.215Z,97333.68
2017-11-12T17:58:59.809Z,97317.12
2017-11-12T18:01:34.261Z,97283.22
2017-11-12T18:04:08.956Z,97296.95
2017-11-12T18:06:43.351Z,97286.53
2017-11-12T18:09:17.855Z,97288.08
2017-11-12T18:11:52.267Z,97281.40
2017-11-12T18:14:27.203Z,97268.93
2017-11-12T18:17:01.779Z,97292.06
2017-11-12T18:19:36.343Z,97293.11
2017-11-12T18:22:10.811Z,97283.32
2017-11-12T18:24:45.408Z,97270.11
2017-11-12T18:27:19.951Z,97271.66
2017-11-12T18:29:54.551Z,97272.89
2017-11-12T18:32:29.105Z,97245.98
2017-11-12T18:37:44.416Z,97241.67
2017-11-12T18:40:18.720Z,97245.58
2017-11-12T18:42:53.077Z,97240.05
2017-11-12T18:45:27.364Z,97245.91
2017-11-12T18:48:01.260Z,97247.49
2017-11-12T18:50:35.615Z,97238.86
2017-11-12T18:53:10.067Z,97232.86
2017-11-12T18:55:46.684Z,97227.05
2017-11-12T18:58:23.780Z,97210.25
2017-11-12T19:04:07.796Z,97202.56
2017-11-12T19:06:47.804Z,97206.53
2017-11-12T19:09:33.001Z,97200.66
2017-11-12T19:12:13.642Z,97187.89
2017-11-12T19:14:47.949Z,97183.02
2017-11-12T19:20:31.564Z,97192.19
2017-11-12T19:23:07.434Z,97191.33
2017-11-12T19:25:42.672Z,97191.83
2017-11-12T19:28:18.076Z,97201.41
2017-11-12T19:30:52.428Z,97192.59
2017-11-12T19:33:26.792Z,97190.59
2017-11-12T19:36:01.124Z,97200.81
2017-11-12T19:38:35.667Z,97193.56
2017-11-12T19:41:10.117Z,97195.76
2017-11-12T19:43:44.603Z,97179.17
2017-11-12T19:46:19.020Z,97181.85
2017-11-12T19:48:53.666Z,97198.76
2017-11-12T19:51:28.141Z,97205.61
2017-11-12T19:54:02.691Z,97192.34
2017-11-12T19:56:37.108Z,97196.16
2017-11-12T19:59:11.783Z,97244.91
2017-11-12T20:01:46.255Z,97248.07
2017-11-12T20:04:20.696Z,97248.72
2017-11-12T20:06:55.160Z,97260.03
2017-11-12T20:09:29.579Z,97269.41
2017-11-12T20:12:04.057Z,97273.28
2017-11-12T20:14:38.666Z,97285.34
2017-11-12T20:17:13.172Z,97296.51
2017-11-12T20:19:48.542Z,97359.34
2017-11-12T20:22:22.971Z,97407.45
2017-11-12T20:24:57.698Z,97387.23
2017-11-12T20:27:32.237Z,97386.81
2017-11-12T20:30:14.919Z,97390.59
2017-11-12T20:32:49.397Z,97396.78
2017-11-12T20:35:23.860Z,97404.84
2017-11-12T20:37:58.315Z,97413.81
2017-11-12T20:40:32.795Z,97410.33
2017-11-12T20:43:07.268Z,97394.39
2017-11-12T20:45:41.535Z,97401.27
2017-11-12T20:48:15.852Z,97383.83
2017-11-12T20:50:50.166Z,97386.56
2017-11-12T20:53:24.784Z,97387.25
2017-11-12T20:56:00.460Z,97389.77
2017-11-12T20:58:34.751Z,97389.52
2017-11-12T21:01:12.413Z,97366.20
2017-11-12T21:03:46.639Z,97352.84
2017-11-12T21:06:20.953Z,97344.89
2017-11-12T21:08:55.303Z,97350.55
2017-11-12T21:11:29.731Z,97360.81
2017-11-12T21:14:05.143Z,97352.93
2017-11-12T21:16:39.700Z,97344.20
2017-11-12T21:19:31.871Z,97342.80
2017-11-12T21:22:21.063Z,97320.77
2017-11-12T21:24:55.443Z,97345.34
2017-11-12T21:27:29.945Z,97348.20
2017-11-12T21:30:13.023Z,97340.47
2017-11-12T21:33:04.084Z,97336.52
2017-11-12T21:35:40.652Z,97346.86
2017-11-12T21:38:14.859Z,97329.59
2017-11-12T21:40:49.365Z,97332.84
2017-11-12T21:43:23.954Z,97358.19
2017-11-12T21:45:58.739Z,97346.97
2017-11-12T21:48:33.056Z,97354.06
2017-11-12T21:51:07.952Z,97340.97
2017-11-12T21:53:42.590Z,97358.80
2017-11-12T21:56:17.009Z,97347.59
2017-11-12T21:58:51.392Z,97366.64
2017-11-12T22:01:25.890Z,97379.56
2017-11-12T22:04:00.502Z,97386.84
2017-11-12T22:06:35.033Z,97401.59
2017-11-12T22:09:09.744Z,97393.95
2017-11-12T22:11:44.357Z,97401.27
2017-11-12T22:14:19.286Z,97395.80
2017-11-12T22:16:54.028Z,97405.23
2017-11-12T22:19:28.564Z,97397.47
2017-11-12T22:22:03.053Z,97415.66
2017-11-12T22:24:37.711Z,97389.37
2017-11-12T22:27:12.147Z,97397.57
2017-11-12T22:29:46.713Z,97376.42
2017-11-12T22:32:21.151Z,97392.14
2017-11-12T22:34:55.743Z,97400.72
2017-11-12T22:37:30.196Z,97367.38
2017-11-12T22:40:13.491Z,97416.89
2017-11-12T22:42:48.012Z,97418.30
2017-11-12T22:45:22.496Z,97423.33
2017-11-12T22:47:57.111Z,97455.80
2017-11-12T22:50:31.604Z,97459.66
2017-11-12T22:53:05.444Z,97475.36
2017-11-12T22:55:39.882Z,97482.69
2017-11-12T22:58:14.256Z,97477.95
2017-11-12T23:00:53.991Z,97466.05
2017-11-12T23:03:28.643Z,97470.70
2017-11-12T23:06:03.258Z,97476.09
2017-11-12T23:08:37.823Z,97471.45
2017-11-12T23:11:12.184Z,97497.78
2017-11-12T23:13:46.584Z,97493.00
2017-11-12T23:16:20.987Z,97486.19
2017-11-12T23:18:55.534Z,97468.23
2017-11-12T23:21:30.168Z,97484.03
2017-11-12T23:24:04.785Z,97471.59
2017-11-12T23:26:40.012Z,97489.58
2017-11-12T23:29:14.799Z,97499.08
2017-11-12T23:31:49.229Z,97512.16
2017-11-12T23:34:23.733Z,97493.39
2017-11-12T23:36:58.398Z,97464.98
2017-11-12T23:39:32.949Z,97447.00
2017-11-12T23:42:07.428Z,97426.63
2017-11-12T23:44:41.924Z,97422.23
2017-11-12T23:47:16.424Z,97378.23
2017-11-12T23:49:50.987Z,97400.75
2017-11-12T23:52:25.435Z,97373.27
2017-11-12T23:55:00.772Z,97400.23
2017-11-12T23:57:35.408Z,97465.82
